createdAt,value
2022-10-10T00:01:28.705Z,2.60
2022-10-10T00:03:56.035Z,2.30
2022-10-10T00:06:33.391Z,2.23
2022-10-10T00:09:01.459Z,2.30
2022-10-10T00:11:28.926Z,2.10
2022-10-10T00:13:55.724Z,2.20
2022-10-10T00:16:22.952Z,2.23
2022-10-10T00:18:50.065Z,2.30
2022-10-10T00:21:16.902Z,2.40
2022-10-10T00:23:43.904Z,2.80
2022-10-10T00:26:14.937Z,2.30
2022-10-10T00:28:45.275Z,2.70
2022-10-10T00:31:12.149Z,2.70
2022-10-10T00:33:38.957Z,2.40
2022-10-10T00:36:07.055Z,2.50
2022-10-10T00:38:34.807Z,2.63
2022-10-10T00:41:02.669Z,2.30
2022-10-10T00:43:31.931Z,2.37
2022-10-10T00:45:59.050Z,2.63
2022-10-10T00:48:31.361Z,2.77
2022-10-10T00:51:10.021Z,2.37
2022-10-10T00:53:45.265Z,2.87
2022-10-10T00:56:14.288Z,2.87
2022-10-10T00:58:46.675Z,2.97
2022-10-10T01:01:13.822Z,2.70
2022-10-10T01:03:40.703Z,2.57
2022-10-10T01:06:07.656Z,2.63
2022-10-10T01:08:35.259Z,2.43
2022-10-10T01:11:29.292Z,2.50
2022-10-10T01:14:20.520Z,2.70
2022-10-10T01:17:00.775Z,3.13
2022-10-10T01:20:01.836Z,2.77
2022-10-10T01:22:49.661Z,2.83
2022-10-10T01:25:28.273Z,3.00
2022-10-10T01:28:02.691Z,2.90
2022-10-10T01:30:31.132Z,2.60
2022-10-10T01:33:13.345Z,2.50
2022-10-10T01:36:11.346Z,2.50
2022-10-10T01:38:59.815Z,2.13
2022-10-10T01:41:34.468Z,2.47
2022-10-10T01:44:01.253Z,2.70
2022-10-10T01:46:28.256Z,2.70
2022-10-10T01:48:57.957Z,2.60
2022-10-10T01:51:49.217Z,2.30
2022-10-10T01:55:07.558Z,2.10
2022-10-10T01:57:47.960Z,2.30
2022-10-10T02:00:16.588Z,2.53
2022-10-10T02:03:02.609Z,2.80
2022-10-10T02:06:00.636Z,2.53
2022-10-10T02:08:44.018Z,2.53
2022-10-10T02:11:12.360Z,2.77
2022-10-10T02:13:46.469Z,2.80
2022-10-10T02:16:22.826Z,3.40
2022-10-10T02:18:51.541Z,3.00
2022-10-10T02:21:19.904Z,3.20
2022-10-10T02:23:50.672Z,2.60
2022-10-10T02:26:18.936Z,3.17
2022-10-10T02:29:01.013Z,2.80
2022-10-10T02:32:04.016Z,2.40
2022-10-10T02:34:37.294Z,2.57
2022-10-10T02:37:10.571Z,2.60
2022-10-10T02:39:43.140Z,2.40
2022-10-10T02:42:12.526Z,2.47
2022-10-10T02:44:40.101Z,2.33
2022-10-10T02:47:07.311Z,2.40
2022-10-10T02:49:35.640Z,2.87
2022-10-10T02:52:03.370Z,2.50
2022-10-10T02:54:30.204Z,2.63
2022-10-10T02:56:57.088Z,2.43
2022-10-10T02:59:24.409Z,2.53
2022-10-10T03:01:51.256Z,2.83
2022-10-10T03:04:18.096Z,2.80
2022-10-10T03:06:45.205Z,2.67
2022-10-10T03:09:12.019Z,3.00
2022-10-10T03:11:38.933Z,2.97
2022-10-10T03:14:05.768Z,2.90
2022-10-10T03:16:32.798Z,2.80
2022-10-10T03:19:00.226Z,2.87
2022-10-10T03:21:27.029Z,3.50
2022-10-10T03:23:53.869Z,3.47
2022-10-10T03:26:20.662Z,3.63
2022-10-10T03:28:47.505Z,3.93
2022-10-10T03:31:14.901Z,4.30
2022-10-10T03:33:41.721Z,4.20
2022-10-10T03:36:08.706Z,4.37
2022-10-10T03:38:35.643Z,4.87
2022-10-10T03:41:02.458Z,4.67
2022-10-10T03:43:29.285Z,6.03
2022-10-10T03:45:56.081Z,5.63
2022-10-10T03:48:22.880Z,6.03
2022-10-10T03:50:49.710Z,5.50
2022-10-10T03:53:16.484Z,6.60
2022-10-10T03:55:43.517Z,6.70
2022-10-10T03:58:11.483Z,7.87
2022-10-10T04:00:39.272Z,7.10
2022-10-10T04:03:06.679Z,7.47
2022-10-10T04:05:35.572Z,7.90
2022-10-10T04:08:03.251Z,7.63
2022-10-10T04:10:30.364Z,8.00
2022-10-10T04:12:58.557Z,7.20
2022-10-10T04:15:25.968Z,8.77
2022-10-10T04:17:52.880Z,8.20
2022-10-10T04:20:19.819Z,7.87
2022-10-10T04:22:46.641Z,8.30
2022-10-10T04:25:13.728Z,8.30
2022-10-10T04:27:40.553Z,7.53
2022-10-10T04:30:08.084Z,8.47
2022-10-10T04:32:34.886Z,8.07
2022-10-10T04:35:02.064Z,9.07
2022-10-10T04:37:28.842Z,8.30
2022-10-10T04:39:55.710Z,9.40
2022-10-10T04:42:22.800Z,8.80
2022-10-10T04:44:49.877Z,9.13
2022-10-10T04:47:17.301Z,8.43
2022-10-10T04:49:44.434Z,8.33
2022-10-10T04:52:11.715Z,9.17
2022-10-10T04:54:38.640Z,9.40
2022-10-10T04:57:05.857Z,9.90
2022-10-10T04:59:32.913Z,8.97
2022-10-10T05:02:01.883Z,9.53
2022-10-10T05:04:29.253Z,10.63
2022-10-10T05:06:56.080Z,9.60
2022-10-10T05:09:22.973Z,9.93
2022-10-10T05:11:49.774Z,10.70
2022-10-10T05:14:16.564Z,10.33
2022-10-10T05:16:43.358Z,10.20
2022-10-10T05:19:10.120Z,10.70
2022-10-10T05:21:36.892Z,9.50
2022-10-10T05:24:03.967Z,10.47
2022-10-10T05:26:30.829Z,9.50
2022-10-10T05:28:57.593Z,9.83
2022-10-10T05:31:24.458Z,10.63
2022-10-10T05:33:51.315Z,10.83
2022-10-10T05:36:18.143Z,10.30
2022-10-10T05:38:45.051Z,11.30
2022-10-10T05:41:12.579Z,10.30
2022-10-10T05:43:39.531Z,10.97
2022-10-10T05:46:06.417Z,12.23
2022-10-10T05:48:33.654Z,14.07
2022-10-10T05:51:01.111Z,13.27
2022-10-10T05:53:30.169Z,13.47
2022-10-10T05:55:57.154Z,12.77
2022-10-10T05:58:24.355Z,13.17
2022-10-10T06:00:51.180Z,13.80
2022-10-10T06:03:18.002Z,13.77
2022-10-10T06:05:48.389Z,14.20
2022-10-10T06:08:15.609Z,13.50
2022-10-10T06:10:45.581Z,13.10
2022-10-10T06:13:14.453Z,13.73
2022-10-10T06:15:41.375Z,12.90
2022-10-10T06:18:08.706Z,12.07
2022-10-10T06:20:40.519Z,13.70
2022-10-10T06:23:08.520Z,13.60
2022-10-10T06:25:41.557Z,13.17
2022-10-10T06:28:10.195Z,12.90
2022-10-10T06:30:44.723Z,13.30
2022-10-10T06:33:12.683Z,12.67
2022-10-10T06:35:42.258Z,15.60
2022-10-10T06:38:10.130Z,14.13
2022-10-10T06:40:36.955Z,15.17
2022-10-10T06:43:04.705Z,14.53
2022-10-10T06:45:31.560Z,16.17
2022-10-10T06:47:58.334Z,16.17
2022-10-10T06:50:25.152Z,16.20
2022-10-10T06:52:52.386Z,16.27
2022-10-10T06:55:19.431Z,16.00
2022-10-10T06:57:46.196Z,14.73
2022-10-10T07:00:13.969Z,14.83
2022-10-10T07:02:41.053Z,14.47
2022-10-10T07:05:16.319Z,14.87
2022-10-10T07:07:43.803Z,14.33
2022-10-10T07:10:14.976Z,14.67
2022-10-10T07:12:44.722Z,15.17
2022-10-10T07:15:11.933Z,14.90
2022-10-10T07:17:39.254Z,16.70
2022-10-10T07:20:06.537Z,17.97
2022-10-10T07:22:33.603Z,17.03
2022-10-10T07:25:00.387Z,16.83
2022-10-10T07:27:27.348Z,17.73
2022-10-10T07:29:54.192Z,15.50
2022-10-10T07:32:21.045Z,15.73
2022-10-10T07:34:47.832Z,15.13
2022-10-10T07:37:14.619Z,14.90
2022-10-10T07:39:41.486Z,16.17
2022-10-10T07:42:08.245Z,15.23
2022-10-10T07:44:35.056Z,14.53
2022-10-10T07:47:02.004Z,14.07
2022-10-10T07:49:28.940Z,15.00
2022-10-10T07:52:00.460Z,14.37
2022-10-10T07:54:31.392Z,15.23
2022-10-10T07:56:58.406Z,14.17
2022-10-10T07:59:25.552Z,13.90
2022-10-10T08:01:52.642Z,13.00
2022-10-10T08:04:20.062Z,13.50
2022-10-10T08:06:46.983Z,12.67
2022-10-10T08:09:13.758Z,12.47
2022-10-10T08:11:40.568Z,12.67
2022-10-10T08:14:07.348Z,12.30
2022-10-10T08:16:34.161Z,12.00
2022-10-10T08:19:01.077Z,12.20
2022-10-10T08:21:27.957Z,12.20
2022-10-10T08:23:55.741Z,11.83
2022-10-10T08:26:22.599Z,11.30
2022-10-10T08:28:49.483Z,11.33
2022-10-10T08:31:21.296Z,10.93
2022-10-10T08:33:50.512Z,10.27
2022-10-10T08:36:23.102Z,8.83
2022-10-10T08:38:52.677Z,8.57
2022-10-10T08:41:42.237Z,8.90
2022-10-10T08:44:40.642Z,9.07
2022-10-10T08:47:17.706Z,7.80
2022-10-10T08:50:02.022Z,7.33
2022-10-10T08:52:53.755Z,6.43
2022-10-10T08:55:33.060Z,6.20
2022-10-10T08:58:16.712Z,6.20
2022-10-10T09:00:58.919Z,6.20
2022-10-10T09:03:49.470Z,5.80
2022-10-10T09:06:17.410Z,5.23
2022-10-10T09:09:26.373Z,4.90
2022-10-10T09:12:26.654Z,4.77
2022-10-10T09:15:15.409Z,5.67
2022-10-10T09:18:27.857Z,5.23
2022-10-10T09:21:16.188Z,5.33
2022-10-10T09:24:03.411Z,5.10
2022-10-10T09:26:39.658Z,5.43
2022-10-10T09:29:44.637Z,5.50
2022-10-10T09:32:15.174Z,4.90
2022-10-10T09:34:48.400Z,4.13
2022-10-10T09:37:35.614Z,4.30
2022-10-10T09:40:30.368Z,4.17
2022-10-10T09:42:57.286Z,3.63
2022-10-10T09:45:39.029Z,4.10
2022-10-10T09:48:06.113Z,4.17
2022-10-10T09:50:32.882Z,3.67
2022-10-10T09:53:00.046Z,3.80
2022-10-10T09:55:31.227Z,3.37
2022-10-10T09:58:20.697Z,3.23
2022-10-10T10:00:47.803Z,3.27
2022-10-10T10:03:18.761Z,3.00
2022-10-10T10:05:59.730Z,2.70
2022-10-10T10:08:33.287Z,2.60
2022-10-10T10:11:01.337Z,3.37
2022-10-10T10:13:33.239Z,2.80
2022-10-10T10:16:11.790Z,2.87
2022-10-10T10:18:48.323Z,3.27
2022-10-10T10:21:23.277Z,2.70
2022-10-10T10:24:22.616Z,3.00
2022-10-10T10:26:50.672Z,3.00
2022-10-10T10:29:28.788Z,2.77
2022-10-10T10:32:16.381Z,2.63
2022-10-10T10:35:24.921Z,2.87
2022-10-10T10:38:14.329Z,3.13
2022-10-10T10:40:50.753Z,3.00
2022-10-10T10:43:35.384Z,2.70
2022-10-10T10:46:53.441Z,3.20
2022-10-10T10:49:27.057Z,2.90
2022-10-10T10:52:27.578Z,2.83
2022-10-10T10:55:12.883Z,3.40
2022-10-10T10:58:10.480Z,3.50
2022-10-10T11:01:38.407Z,3.23
2022-10-10T11:05:21.340Z,2.70
2022-10-10T11:07:20.893Z,3.10
2022-10-10T11:10:03.860Z,3.00
2022-10-10T11:13:14.295Z,2.30
2022-10-10T11:16:54.167Z,2.43
2022-10-10T11:19:41.983Z,2.70
2022-10-10T11:22:15.528Z,2.80
2022-10-10T11:24:59.961Z,2.60
2022-10-10T11:27:48.640Z,2.83
2022-10-10T11:30:23.989Z,2.80
2022-10-10T11:32:59.560Z,2.57
2022-10-10T11:35:50.558Z,2.50
2022-10-10T11:38:43.237Z,2.60
2022-10-10T11:41:19.211Z,2.63
2022-10-10T11:43:52.852Z,2.20
2022-10-10T11:46:57.258Z,2.27
2022-10-10T11:49:54.274Z,2.50
2022-10-10T11:53:07.658Z,2.43
2022-10-10T11:55:57.403Z,2.57
2022-10-10T11:58:29.985Z,2.07
2022-10-10T12:01:06.005Z,2.53
2022-10-10T12:03:32.936Z,2.77
2022-10-10T12:06:07.287Z,2.40
2022-10-10T12:09:08.580Z,2.30
2022-10-10T12:11:48.356Z,2.60
2022-10-10T12:14:19.904Z,2.20
2022-10-10T12:16:47.353Z,2.30
2022-10-10T12:19:21.717Z,2.30
2022-10-10T12:22:04.833Z,2.43
2022-10-10T12:24:42.502Z,2.40
2022-10-10T12:27:28.405Z,2.23
2022-10-10T12:29:55.075Z,2.17
2022-10-10T12:32:30.501Z,2.03
2022-10-10T12:35:00.889Z,2.20
2022-10-10T12:37:33.366Z,2.40
2022-10-10T12:40:19.058Z,1.97
2022-10-10T12:42:48.744Z,2.13
2022-10-10T12:45:30.574Z,2.50
2022-10-10T12:48:20.021Z,2.40
2022-10-10T12:51:01.469Z,2.40
2022-10-10T12:53:32.747Z,2.03
2022-10-10T12:56:02.173Z,2.10
2022-10-10T12:58:34.645Z,2.10
2022-10-10T13:01:09.192Z,2.00
2022-10-10T13:03:47.865Z,2.00
2022-10-10T13:06:40.191Z,1.90
2022-10-10T13:09:24.417Z,2.40
2022-10-10T13:11:59.548Z,2.00
2022-10-10T13:14:38.365Z,2.17
2022-10-10T13:17:32.838Z,1.90
2022-10-10T13:20:01.301Z,2.20
2022-10-10T13:22:31.337Z,2.00
2022-10-10T13:25:00.036Z,1.90
2022-10-10T13:27:31.286Z,2.30
2022-10-10T13:29:58.288Z,1.80
2022-10-10T13:32:27.829Z,2.10
2022-10-10T13:35:05.341Z,1.70
2022-10-10T13:37:32.798Z,1.87
2022-10-10T13:40:00.626Z,2.10
2022-10-10T13:42:39.945Z,1.77
2022-10-10T13:45:35.512Z,2.27
2022-10-10T13:48:02.185Z,1.80
2022-10-10T13:50:44.044Z,2.30
2022-10-10T13:53:29.532Z,1.90
2022-10-10T13:56:25.879Z,1.90
2022-10-10T13:59:01.475Z,2.03
2022-10-10T14:01:38.213Z,1.90
2022-10-10T14:04:15.461Z,2.10
2022-10-10T14:07:13.255Z,1.60
2022-10-10T14:09:53.525Z,1.73
2022-10-10T14:12:35.064Z,2.17
2022-10-10T14:15:04.762Z,1.90
2022-10-10T14:17:32.995Z,1.97
2022-10-10T14:19:59.764Z,2.10
2022-10-10T14:22:27.140Z,1.90
2022-10-10T14:24:53.946Z,2.00
2022-10-10T14:27:26.119Z,1.93
2022-10-10T14:29:56.690Z,2.00
2022-10-10T14:32:24.052Z,1.97
2022-10-10T14:34:50.902Z,2.13
2022-10-10T14:37:23.684Z,1.93
2022-10-10T14:39:50.969Z,2.10
2022-10-10T14:42:19.236Z,1.63
2022-10-10T14:44:46.821Z,2.00
2022-10-10T14:47:24.902Z,1.67
2022-10-10T14:49:53.393Z,1.80
2022-10-10T14:52:20.481Z,2.07
2022-10-10T14:54:47.265Z,1.77
2022-10-10T14:57:14.870Z,1.80
2022-10-10T14:59:48.798Z,1.87
2022-10-10T15:02:19.122Z,2.33
2022-10-10T15:04:45.880Z,1.97
2022-10-10T15:07:14.751Z,1.80
2022-10-10T15:10:02.533Z,1.80
2022-10-10T15:12:30.137Z,1.93
2022-10-10T15:14:56.979Z,2.10
2022-10-10T15:17:25.493Z,2.63
2022-10-10T15:19:52.339Z,2.70
2022-10-10T15:22:19.406Z,2.40
2022-10-10T15:24:46.198Z,2.40
2022-10-10T15:27:13.506Z,3.40
2022-10-10T15:29:40.336Z,2.87
2022-10-10T15:32:07.311Z,3.43
2022-10-10T15:34:34.470Z,3.50
2022-10-10T15:37:01.277Z,3.30
2022-10-10T15:39:29.149Z,4.47
2022-10-10T15:41:56.326Z,8.30
2022-10-10T15:44:23.300Z,7.47
2022-10-10T15:46:50.096Z,5.00
2022-10-10T15:49:16.888Z,4.30
2022-10-10T15:51:46.298Z,4.53
2022-10-10T15:54:14.364Z,4.10
2022-10-10T15:56:41.650Z,3.30
2022-10-10T15:59:09.447Z,7.67
2022-10-10T16:01:36.995Z,6.53
2022-10-10T16:04:05.187Z,8.40
2022-10-10T16:06:33.071Z,12.20
2022-10-10T16:09:23.432Z,14.73
2022-10-10T16:11:48.784Z,12.60
2022-10-10T16:14:15.626Z,10.83
2022-10-10T16:16:42.532Z,10.20
2022-10-10T16:19:09.404Z,10.33
2022-10-10T16:21:36.233Z,12.23
2022-10-10T16:24:03.070Z,13.70
2022-10-10T16:26:33.394Z,16.47
2022-10-10T16:29:01.871Z,20.07
2022-10-10T16:31:29.725Z,16.73
2022-10-10T16:33:58.919Z,14.63
2022-10-10T16:36:31.585Z,14.00
2022-10-10T16:38:59.331Z,14.43
2022-10-10T16:41:48.409Z,7.80
2022-10-10T16:44:17.215Z,9.50
2022-10-10T16:46:44.201Z,8.20
2022-10-10T16:49:14.010Z,6.30
2022-10-10T16:51:40.916Z,5.30
2022-10-10T16:54:07.714Z,5.10
2022-10-10T16:56:35.242Z,5.00
2022-10-10T16:59:02.901Z,4.50
2022-10-10T17:01:29.869Z,4.30
2022-10-10T17:03:59.815Z,3.50
2022-10-10T17:06:32.598Z,3.40
2022-10-10T17:09:02.657Z,3.23
2022-10-10T17:11:29.497Z,3.43
2022-10-10T17:13:56.484Z,3.17
2022-10-10T17:19:13.567Z,3.40
2022-10-10T17:21:40.496Z,3.10
2022-10-10T17:24:07.349Z,3.67
2022-10-10T17:26:34.156Z,3.90
2022-10-10T17:29:01.104Z,4.30
2022-10-10T17:31:28.390Z,4.37
2022-10-10T17:33:57.320Z,4.23
2022-10-10T17:36:27.468Z,4.00
2022-10-10T17:38:56.274Z,4.03
2022-10-10T17:41:23.689Z,3.80
2022-10-10T17:43:50.677Z,6.63
2022-10-10T17:46:40.874Z,5.03
2022-10-10T17:49:10.758Z,3.97
2022-10-10T17:51:40.093Z,3.30
2022-10-10T17:54:09.358Z,3.43
2022-10-10T17:56:37.373Z,3.30
2022-10-10T17:59:06.534Z,3.87
2022-10-10T18:01:35.696Z,3.97
2022-10-10T18:04:02.713Z,3.47
2022-10-10T18:06:31.372Z,3.80
2022-10-10T18:08:59.327Z,3.63
2022-10-10T18:11:31.208Z,3.73
2022-10-10T18:14:00.661Z,3.57
2022-10-10T18:16:35.469Z,3.37
2022-10-10T18:19:05.569Z,4.13
2022-10-10T18:21:32.559Z,3.27
2022-10-10T18:24:00.575Z,3.70
2022-10-10T18:26:29.633Z,3.53
2022-10-10T18:28:57.435Z,3.40
2022-10-10T18:31:34.462Z,3.03
2022-10-10T18:34:02.561Z,3.97
2022-10-10T18:36:34.306Z,3.13
2022-10-10T18:39:05.539Z,3.70
2022-10-10T18:41:35.296Z,3.77
2022-10-10T18:44:06.015Z,3.77
2022-10-10T18:46:33.666Z,3.33
2022-10-10T18:49:02.441Z,3.40
2022-10-10T18:51:29.995Z,3.70
2022-10-10T18:54:04.697Z,3.33
2022-10-10T18:56:33.098Z,3.30
2022-10-10T18:59:03.796Z,3.10
2022-10-10T19:01:35.982Z,3.50
2022-10-10T19:04:05.870Z,3.30
2022-10-10T19:06:33.418Z,3.30
2022-10-10T19:09:02.054Z,3.03
2022-10-10T19:11:34.464Z,3.27
2022-10-10T19:14:04.757Z,3.33
2022-10-10T19:16:32.400Z,3.17
2022-10-10T19:19:02.906Z,3.17
2022-10-10T19:21:33.920Z,3.07
2022-10-10T19:24:02.489Z,3.47
2022-10-10T19:26:33.197Z,3.20
2022-10-10T19:29:07.195Z,3.33
2022-10-10T19:31:38.781Z,3.27
2022-10-10T19:34:05.619Z,3.17
2022-10-10T19:36:32.570Z,3.40
2022-10-10T19:39:00.746Z,3.43
2022-10-10T19:41:28.663Z,3.47
2022-10-10T19:43:58.094Z,3.83
2022-10-10T19:46:27.421Z,3.60
2022-10-10T19:48:58.000Z,4.00
2022-10-10T19:51:27.304Z,4.10
2022-10-10T19:53:54.472Z,4.00
2022-10-10T19:56:24.493Z,4.27
2022-10-10T19:58:56.857Z,4.23
2022-10-10T20:01:29.329Z,3.67
2022-10-10T20:03:57.242Z,4.33
2022-10-10T20:06:26.081Z,3.83
2022-10-10T20:08:53.313Z,3.97
2022-10-10T20:11:20.366Z,4.10
2022-10-10T20:13:51.991Z,3.90
2022-10-10T20:16:27.526Z,4.09
2022-10-10T20:18:57.027Z,4.17
2022-10-10T20:21:31.173Z,4.07
2022-10-10T20:24:02.111Z,3.57
2022-10-10T20:26:29.475Z,4.10
2022-10-10T20:28:57.609Z,4.20
2022-10-10T20:31:28.770Z,4.07
2022-10-10T20:33:58.377Z,4.30
2022-10-10T20:36:25.700Z,4.07
2022-10-10T20:38:58.821Z,4.17
2022-10-10T20:41:28.169Z,4.80
2022-10-10T20:44:00.843Z,5.00
2022-10-10T20:46:31.497Z,4.53
2022-10-10T20:49:00.666Z,4.40
2022-10-10T20:51:28.325Z,4.50
2022-10-10T20:53:59.018Z,4.57
2022-10-10T20:56:27.385Z,4.50
2022-10-10T20:58:55.245Z,4.13
2022-10-10T21:01:25.749Z,3.80
2022-10-10T21:03:52.973Z,4.23
2022-10-10T21:06:31.458Z,4.40
2022-10-10T21:09:01.857Z,3.27
2022-10-10T21:11:28.743Z,3.20
2022-10-10T21:13:58.979Z,3.23
2022-10-10T21:16:40.309Z,2.70
2022-10-10T21:19:09.816Z,2.70
2022-10-10T21:21:37.549Z,2.47
2022-10-10T21:24:08.063Z,2.17
2022-10-10T21:26:34.913Z,2.20
2022-10-10T21:29:01.876Z,3.63
2022-10-10T21:31:32.782Z,3.77
2022-10-10T21:34:02.412Z,4.00
2022-10-10T21:36:30.712Z,4.40
2022-10-10T21:38:58.956Z,4.90
2022-10-10T21:41:26.048Z,5.37
2022-10-10T21:43:56.620Z,5.60
2022-10-10T21:46:36.796Z,5.20
2022-10-10T21:49:08.124Z,5.37
2022-10-10T21:51:38.199Z,5.30
2022-10-10T21:54:05.649Z,5.03
2022-10-10T21:56:33.667Z,5.60
2022-10-10T21:59:01.704Z,5.47
2022-10-10T22:01:32.954Z,4.27
2022-10-10T22:04:01.164Z,2.70
2022-10-10T22:06:27.996Z,2.63
2022-10-10T22:08:58.517Z,2.60
2022-10-10T22:11:27.278Z,3.30
2022-10-10T22:13:54.489Z,2.83
2022-10-10T22:16:21.612Z,2.60
2022-10-10T22:18:53.232Z,2.43
2022-10-10T22:21:20.538Z,2.50
2022-10-10T22:23:47.303Z,3.27
2022-10-10T22:26:16.874Z,5.10
2022-10-10T22:28:45.031Z,5.47
2022-10-10T22:31:17.530Z,5.53
2022-10-10T22:33:45.055Z,5.20
2022-10-10T22:36:12.461Z,5.97
2022-10-10T22:38:43.160Z,5.50
2022-10-10T22:41:11.128Z,5.63
2022-10-10T22:43:38.041Z,5.57
2022-10-10T22:46:05.949Z,5.93
2022-10-10T22:48:33.103Z,6.50
2022-10-10T22:51:06.465Z,5.63
2022-10-10T22:53:33.328Z,4.87
2022-10-10T22:56:00.177Z,5.50
2022-10-10T22:58:27.124Z,5.00
2022-10-10T23:00:54.036Z,4.90
2022-10-10T23:03:21.068Z,5.07
2022-10-10T23:05:47.932Z,5.27
2022-10-10T23:08:15.037Z,6.17
2022-10-10T23:10:42.039Z,5.63
2022-10-10T23:13:08.868Z,5.43
2022-10-10T23:15:35.729Z,5.50
2022-10-10T23:18:02.604Z,5.27
2022-10-10T23:20:29.438Z,4.33
2022-10-10T23:22:56.499Z,4.13
2022-10-10T23:25:23.613Z,5.23
2022-10-10T23:27:51.235Z,5.10
2022-10-10T23:30:18.132Z,4.97
2022-10-10T23:32:45.051Z,4.50
2022-10-10T23:35:13.519Z,3.60
2022-10-10T23:37:41.619Z,3.70
2022-10-10T23:40:09.051Z,3.53
2022-10-10T23:42:35.869Z,3.67
2022-10-10T23:45:03.440Z,3.00
2022-10-10T23:47:30.349Z,3.90
2022-10-10T23:49:57.183Z,3.40
2022-10-10T23:52:23.979Z,3.20
2022-10-10T23:54:50.788Z,3.10
2022-10-10T23:57:17.627Z,4.30
2022-10-10T23:59:44.429Z,3.60
